createdAt,value
2022-12-03T00:01:29.148Z,44.81
2022-12-03T00:06:34.482Z,44.81
2022-12-03T00:11:36.692Z,44.83
2022-12-03T00:16:38.440Z,44.86
2022-12-03T00:21:40.130Z,44.88
2022-12-03T00:26:41.924Z,45.18
2022-12-03T00:31:45.736Z,44.98
2022-12-03T00:36:48.780Z,45.23
2022-12-03T00:41:50.498Z,45.34
2022-12-03T00:46:53.158Z,45.32
2022-12-03T00:51:55.035Z,45.13
2022-12-03T00:56:56.885Z,45.13
2022-12-03T01:01:58.653Z,45.05
2022-12-03T01:07:01.135Z,45.08
2022-12-03T01:12:03.050Z,45.21
2022-12-03T01:17:05.325Z,45.17
2022-12-03T01:22:08.107Z,45.06
2022-12-03T01:27:09.869Z,45.26
2022-12-03T01:32:17.944Z,44.95
2022-12-03T01:37:21.967Z,45.17
2022-12-03T01:42:29.060Z,45.24
2022-12-03T01:47:34.535Z,45.04
2022-12-03T01:52:39.245Z,45.03
2022-12-03T01:58:01.973Z,45.20
2022-12-03T02:03:11.703Z,45.35
2022-12-03T02:08:37.759Z,45.20
2022-12-03T02:13:40.243Z,45.40
2022-12-03T02:18:43.452Z,45.10
2022-12-03T02:23:54.448Z,44.88
2022-12-03T02:28:56.927Z,44.78
2022-12-03T02:33:58.819Z,45.43
2022-12-03T02:39:01.416Z,45.34
2022-12-03T02:44:06.186Z,45.40
2022-12-03T02:49:08.248Z,45.47
2022-12-03T02:54:10.010Z,45.58
2022-12-03T02:59:12.107Z,45.71
2022-12-03T03:04:14.094Z,45.60
2022-12-03T03:09:15.837Z,45.58
2022-12-03T03:14:17.646Z,45.70
2022-12-03T03:19:19.448Z,45.45
2022-12-03T03:24:23.766Z,45.35
2022-12-03T03:29:25.654Z,45.60
2022-12-03T03:34:28.112Z,45.68
2022-12-03T03:39:30.013Z,45.60
2022-12-03T03:44:33.017Z,45.53
2022-12-03T03:49:35.508Z,45.32
2022-12-03T03:54:38.723Z,45.25
2022-12-03T03:59:41.425Z,44.88
2022-12-03T04:04:43.305Z,44.68
2022-12-03T04:09:45.441Z,44.89
2022-12-03T04:14:47.266Z,45.00
2022-12-03T04:19:50.168Z,44.98
2022-12-03T04:24:52.010Z,44.69
2022-12-03T04:29:54.059Z,44.61
2022-12-03T04:35:16.098Z,44.67
2022-12-03T04:40:36.803Z,44.76
2022-12-03T04:45:38.562Z,44.74
2022-12-03T04:50:40.461Z,44.82
2022-12-03T04:55:42.444Z,44.83
2022-12-03T05:00:44.183Z,44.76
2022-12-03T05:05:46.406Z,44.92
2022-12-03T05:10:48.183Z,44.65
2022-12-03T05:15:49.965Z,44.88
2022-12-03T05:20:53.667Z,44.85
2022-12-03T05:25:55.768Z,44.99
2022-12-03T05:30:57.706Z,45.03
2022-12-03T05:36:00.147Z,45.28
2022-12-03T05:41:01.928Z,45.25
2022-12-03T05:46:03.777Z,45.27
2022-12-03T05:51:05.785Z,45.13
2022-12-03T05:56:07.746Z,45.21
2022-12-03T06:01:09.488Z,45.24
2022-12-03T06:06:11.150Z,45.08
2022-12-03T06:11:12.995Z,45.13
2022-12-03T06:16:15.044Z,44.94
2022-12-03T06:21:16.858Z,45.17
2022-12-03T06:26:18.633Z,45.19
2022-12-03T06:31:20.358Z,45.09
2022-12-03T06:36:23.491Z,44.97
2022-12-03T06:41:25.397Z,45.01
2022-12-03T06:46:27.362Z,44.95
2022-12-03T06:51:29.258Z,45.01
2022-12-03T06:56:36.822Z,44.96
2022-12-03T07:01:40.229Z,44.85
2022-12-03T07:06:42.036Z,44.82
2022-12-03T07:11:43.945Z,44.88
2022-12-03T07:16:46.027Z,45.14
2022-12-03T07:21:48.624Z,45.11
2022-12-03T07:26:50.404Z,45.09
2022-12-03T07:31:52.367Z,45.13
2022-12-03T07:36:54.275Z,45.38
2022-12-03T07:41:56.128Z,45.53
2022-12-03T07:46:58.204Z,45.32
2022-12-03T07:52:00.109Z,45.20
2022-12-03T07:57:02.382Z,44.95
2022-12-03T08:02:04.422Z,45.10
2022-12-03T08:07:06.360Z,45.39
2022-12-03T08:12:17.058Z,45.33
2022-12-03T08:17:21.380Z,45.15
2022-12-03T08:22:24.704Z,45.15
2022-12-03T08:27:26.476Z,45.13
2022-12-03T08:32:28.252Z,45.44
2022-12-03T08:37:30.147Z,45.26
2022-12-03T08:42:43.032Z,44.90
2022-12-03T08:47:44.846Z,44.56
2022-12-03T08:52:46.588Z,44.43
2022-12-03T08:57:48.482Z,44.42
2022-12-03T09:02:59.495Z,44.55
2022-12-03T09:08:01.419Z,44.43
2022-12-03T09:13:03.431Z,44.19
2022-12-03T09:18:07.439Z,44.19
2022-12-03T09:23:09.236Z,44.28
2022-12-03T09:28:10.982Z,44.36
2022-12-03T09:33:14.162Z,44.13
2022-12-03T09:38:15.979Z,44.30
2022-12-03T09:43:18.595Z,44.58
2022-12-03T09:48:20.959Z,44.96
2022-12-03T09:53:25.964Z,44.98
2022-12-03T09:58:34.324Z,45.35
2022-12-03T10:03:41.155Z,45.04
2022-12-03T10:08:43.191Z,45.17
2022-12-03T10:13:46.231Z,45.22
2022-12-03T10:18:51.444Z,45.08
2022-12-03T10:24:29.683Z,45.10
2022-12-03T10:29:34.861Z,45.19
2022-12-03T10:34:41.948Z,45.11
2022-12-03T10:40:12.028Z,45.21
2022-12-03T10:45:16.017Z,45.12
2022-12-03T10:50:20.275Z,44.81
2022-12-03T10:55:22.270Z,44.78
2022-12-03T11:00:24.208Z,44.87
2022-12-03T11:05:28.600Z,44.92
2022-12-03T11:10:30.527Z,44.99
2022-12-03T11:15:44.453Z,44.85
2022-12-03T11:20:46.476Z,44.93
2022-12-03T11:25:50.723Z,45.26
2022-12-03T11:30:56.687Z,45.32
2022-12-03T11:36:04.589Z,45.15
2022-12-03T11:41:27.502Z,44.80
2022-12-03T11:46:47.568Z,44.67
2022-12-03T11:51:50.068Z,45.12
2022-12-03T11:56:53.901Z,45.28
2022-12-03T12:01:55.788Z,45.64
2022-12-03T12:06:57.670Z,45.42
2022-12-03T12:12:37.859Z,45.54
2022-12-03T12:17:39.717Z,45.62
2022-12-03T12:22:41.535Z,45.30
2022-12-03T12:27:47.471Z,45.23
2022-12-03T12:33:01.850Z,45.29
2022-12-03T12:38:07.858Z,45.24
2022-12-03T12:43:27.925Z,45.32
2022-12-03T12:48:35.212Z,45.06
2022-12-03T12:53:39.668Z,44.93
2022-12-03T12:58:42.272Z,45.05
2022-12-03T13:03:44.151Z,45.45
2022-12-03T13:08:49.027Z,45.47
2022-12-03T13:13:52.005Z,45.56
2022-12-03T13:18:55.728Z,45.69
2022-12-03T13:23:58.173Z,45.67
2022-12-03T13:29:06.447Z,45.78
2022-12-03T13:34:16.460Z,45.76
2022-12-03T13:39:38.721Z,45.68
2022-12-03T13:44:45.650Z,45.68
2022-12-03T13:49:56.937Z,45.87
2022-12-03T13:55:03.555Z,45.77
2022-12-03T14:00:06.350Z,45.71
2022-12-03T14:05:14.763Z,45.74
2022-12-03T14:10:17.093Z,45.78
2022-12-03T14:15:19.075Z,46.07
2022-12-03T14:20:20.950Z,46.17
2022-12-03T14:25:22.833Z,46.16
2022-12-03T14:30:24.709Z,46.25
2022-12-03T14:35:26.588Z,46.34
2022-12-03T14:40:28.467Z,46.38
2022-12-03T14:45:30.806Z,46.31
2022-12-03T14:50:32.742Z,46.53
2022-12-03T14:55:34.550Z,46.66
2022-12-03T15:00:36.502Z,46.73
2022-12-03T15:05:38.283Z,46.82
2022-12-03T15:10:40.155Z,46.90
2022-12-03T15:15:41.938Z,46.67
2022-12-03T15:20:43.918Z,46.88
2022-12-03T15:25:46.028Z,46.92
2022-12-03T15:30:48.084Z,47.18
2022-12-03T15:35:49.968Z,47.21
2022-12-03T15:40:52.358Z,47.25
2022-12-03T15:45:54.679Z,47.29
2022-12-03T15:50:56.437Z,47.10
2022-12-03T15:55:59.771Z,47.14
2022-12-03T16:01:01.638Z,47.18
2022-12-03T16:06:03.700Z,47.13
2022-12-03T16:11:05.648Z,47.10
2022-12-03T16:16:07.773Z,46.97
2022-12-03T16:21:09.704Z,46.97
2022-12-03T16:26:11.502Z,46.99
2022-12-03T16:31:13.428Z,47.02
2022-12-03T16:36:15.752Z,47.05
2022-12-03T16:41:18.369Z,47.01
2022-12-03T16:46:21.187Z,46.84
2022-12-03T16:51:23.270Z,46.69
2022-12-03T16:56:25.163Z,46.88
2022-12-03T17:01:27.024Z,46.67
2022-12-03T17:06:28.876Z,46.59
2022-12-03T17:11:30.658Z,46.70
2022-12-03T17:16:32.509Z,46.68
2022-12-03T17:21:35.283Z,46.82
2022-12-03T17:26:37.155Z,46.86
2022-12-03T17:31:42.259Z,46.91
2022-12-03T17:36:44.555Z,46.83
2022-12-03T17:41:46.203Z,47.00
2022-12-03T17:46:49.060Z,46.99
2022-12-03T17:51:50.863Z,46.79
2022-12-03T17:56:52.785Z,46.70
2022-12-03T18:01:54.583Z,46.54
2022-12-03T18:07:00.835Z,46.51
2022-12-03T18:12:04.605Z,46.63
2022-12-03T18:17:06.673Z,46.71
2022-12-03T18:22:09.193Z,46.39
2022-12-03T18:27:11.181Z,46.19
2022-12-03T18:32:27.698Z,46.30
2022-12-03T18:37:32.210Z,46.47
2022-12-03T18:42:33.943Z,46.54
2022-12-03T18:47:36.036Z,46.50
2022-12-03T18:52:38.325Z,46.53
2022-12-03T18:57:40.150Z,46.44
2022-12-03T19:08:04.602Z,46.78
2022-12-03T19:13:06.558Z,46.64
2022-12-03T19:18:08.449Z,46.68
2022-12-03T19:23:10.381Z,46.68
2022-12-03T19:28:12.123Z,46.62
2022-12-03T19:33:17.993Z,46.45
2022-12-03T19:38:20.327Z,46.45
2022-12-03T19:43:22.093Z,46.58
2022-12-03T19:48:23.930Z,46.63
2022-12-03T19:53:27.216Z,46.89
2022-12-03T19:58:29.558Z,46.98
2022-12-03T20:03:31.317Z,47.05
2022-12-03T20:08:37.258Z,47.12
2022-12-03T20:13:39.491Z,47.17
2022-12-03T20:18:43.315Z,47.24
2022-12-03T20:23:46.207Z,47.25
2022-12-03T20:28:49.150Z,47.43
2022-12-03T20:33:54.490Z,47.37
2022-12-03T20:38:59.218Z,47.17
2022-12-03T20:44:02.554Z,47.28
2022-12-03T20:49:04.937Z,47.63
2022-12-03T20:54:06.831Z,47.53
2022-12-03T20:59:12.379Z,47.59
2022-12-03T21:04:16.092Z,47.46
2022-12-03T21:09:17.989Z,47.42
2022-12-03T21:14:19.761Z,47.43
2022-12-03T21:19:21.975Z,47.34
2022-12-03T21:24:23.801Z,47.18
2022-12-03T21:29:25.578Z,46.92
2022-12-03T21:34:32.583Z,47.02
2022-12-03T21:39:37.572Z,47.05
2022-12-03T21:44:39.397Z,47.07
2022-12-03T21:49:41.427Z,47.07
2022-12-03T21:54:43.234Z,47.00
2022-12-03T21:59:45.126Z,47.10
2022-12-03T22:04:50.870Z,47.21
2022-12-03T22:09:58.518Z,47.19
2022-12-03T22:15:03.011Z,47.13
2022-12-03T22:20:06.965Z,47.27
2022-12-03T22:25:09.470Z,47.23
2022-12-03T22:30:11.502Z,47.35
2022-12-03T22:35:13.291Z,47.26
2022-12-03T22:40:15.363Z,47.33
2022-12-03T22:45:17.093Z,47.20
2022-12-03T22:50:18.828Z,47.28
2022-12-03T22:55:20.462Z,47.38
2022-12-03T23:00:30.234Z,47.37
2022-12-03T23:05:38.620Z,47.36
2022-12-03T23:10:43.943Z,47.46
2022-12-03T23:15:51.547Z,47.26
2022-12-03T23:20:55.536Z,47.19
2022-12-03T23:26:10.135Z,47.21
2022-12-03T23:31:23.035Z,47.15
2022-12-03T23:36:27.600Z,47.03
2022-12-03T23:41:29.537Z,46.94
2022-12-03T23:46:31.350Z,46.95
2022-12-03T23:51:33.159Z,46.86
2022-12-03T23:56:34.916Z,46.96
